Time;durP1;ratioP1;P1;durP2;ratioP2;P2;SDS_P1;SDS_P2;PMS_P1;PMS_P2;Temp;Humidity;BMP_temperature;BMP_pressure;BME280_temperature;BME280_humidity;BME280_pressure;Samples;Min_cycle;Max_cycle;Signal;HPM_P1;HPM_P2
2021/11/25 00:01:08;;;;;;;14.50;10.93;;;;;;;6.00;72.46;94924.75;828183;71;30038;-79
2021/11/25 00:16:13;;;;;;;15.03;11.12;;;;;;;5.81;73.71;94930.30;827730;71;32683;-78
2021/11/25 00:31:16;;;;;;;14.75;9.93;;;;;;;5.72;72.75;94908.87;827583;71;32822;-78
2021/11/25 00:46:17;;;;;;;17.37;11.40;;;;;;;6.10;71.87;94931.34;833537;71;32761;-78
2021/11/25 01:01:15;;;;;;;14.33;11.18;;;;;;;6.21;71.51;94916.61;827090;71;32762;-78
2021/11/25 01:16:09;;;;;;;20.85;14.20;;;;;;;5.55;73.31;94905.83;827862;71;29388;-77
2021/11/25 01:31:08;;;;;;;19.50;13.62;;;;;;;5.50;75.22;94899.81;827867;71;29923;-77
2021/11/25 01:46:18;;;;;;;15.60;11.43;;;;;;;5.39;73.81;94899.70;827590;71;30878;-77
2021/11/25 02:01:12;;;;;;;15.90;10.60;;;;;;;5.26;74.26;94894.09;833359;71;30737;-78
2021/11/25 02:16:10;;;;;;;19.35;13.38;;;;;;;5.16;74.27;94886.44;833393;71;31058;-78
2021/11/25 02:31:15;;;;;;;15.50;12.13;;;;;;;4.77;76.20;94869.61;826723;71;33038;-78
2021/11/25 02:46:13;;;;;;;14.98;10.82;;;;;;;4.76;76.42;94874.52;833472;71;29382;-78
2021/11/25 03:16:13;;;;;;;17.57;11.90;;;;;;;5.06;76.54;94862.91;827731;71;30252;-76
2021/11/25 03:31:11;;;;;;;19.67;13.05;;;;;;;4.90;76.97;94848.95;835155;71;30286;-79
2021/11/25 03:46:16;;;;;;;19.82;13.22;;;;;;;4.65;78.15;94848.14;826702;71;33166;-78
2021/11/25 04:01:19;;;;;;;19.85;13.83;;;;;;;4.61;78.58;94840.04;827274;71;32833;-79
2021/11/25 04:16:09;;;;;;;20.88;14.03;;;;;;;4.61;78.75;94832.77;827343;71;30294;-76
2021/11/25 04:46:15;;;;;;;25.32;14.20;;;;;;;4.30;80.05;94831.56;826938;71;32707;-81
2021/11/25 05:01:13;;;;;;;21.37;14.00;;;;;;;3.90;81.03;94815.71;827534;71;32881;-77
2021/11/25 05:16:08;;;;;;;20.20;12.23;;;;;;;3.97;81.51;94825.41;829218;71;29778;-76
2021/11/25 05:31:09;;;;;;;20.90;13.70;;;;;;;4.24;80.51;94816.94;827256;71;30438;-77
2021/11/25 05:46:15;;;;;;;17.90;11.53;;;;;;;4.51;79.40;94827.44;826734;71;32805;-75
2021/11/25 06:01:18;;;;;;;19.65;13.40;;;;;;;4.33;79.65;94836.30;827993;71;32726;-74
2021/11/25 06:16:08;;;;;;;17.85;11.45;;;;;;;5.17;78.44;94846.89;821219;71;29709;-76
2021/11/25 06:31:09;;;;;;;16.52;11.08;;;;;;;6.51;73.04;94857.39;833434;71;30333;-76
2021/11/25 06:46:18;;;;;;;13.20;10.25;;;;;;;7.19;69.16;94849.56;820238;71;32811;-77
2021/11/25 07:01:10;;;;;;;16.35;10.78;;;;;;;7.20;68.44;94849.06;818684;71;29843;-77
2021/11/25 07:16:09;;;;;;;9.68;7.95;;;;;;;7.43;67.46;94851.72;824193;71;29292;-76
2021/11/25 07:31:10;;;;;;;18.25;11.08;;;;;;;7.99;65.05;94833.47;827457;71;29774;-75
2021/11/25 07:46:29;;;;;;;11.00;8.70;;;;;;;8.92;62.76;94830.66;804578;71;32966;-76
2021/11/25 08:01:09;;;;;;;12.37;9.43;;;;;;;9.07;61.23;94824.05;827377;71;28956;-76
2021/11/25 08:16:13;;;;;;;11.57;8.98;;;;;;;8.47;62.71;94818.77;834460;71;28466;-78
2021/11/25 08:31:08;;;;;;;13.85;9.75;;;;;;;7.50;65.61;94796.63;828979;71;28747;-78
2021/11/25 08:46:08;;;;;;;14.93;8.95;;;;;;;6.67;68.13;94777.92;826058;71;28512;-77
2021/11/25 09:16:08;;;;;;;12.33;9.90;;;;;;;6.24;70.01;94765.50;820901;71;29008;-78
2021/11/25 09:31:13;;;;;;;14.30;9.38;;;;;;;6.13;70.77;94749.04;827950;71;29783;-78
2021/11/25 09:46:15;;;;;;;13.22;9.50;;;;;;;6.09;70.79;94742.77;827089;71;31772;-75
2021/11/25 10:01:14;;;;;;;13.48;9.23;;;;;;;6.36;69.83;94740.79;825713;71;28344;-78
2021/11/25 10:16:35;;;;;;;17.60;9.83;;;;;;;5.97;71.30;94735.92;820454;71;31871;-76
2021/11/25 10:31:14;;;;;;;12.60;9.50;;;;;;;5.78;72.32;94709.50;819548;71;28752;-77
2021/11/25 10:46:09;;;;;;;15.28;10.78;;;;;;;5.87;72.04;94694.17;833885;71;29232;-79
2021/11/25 11:01:09;;;;;;;13.95;9.18;;;;;;;5.92;72.17;94678.59;833611;71;29019;-76
2021/11/25 11:31:09;;;;;;;12.70;8.80;;;;;;;6.10;71.76;94649.24;825367;70;28788;-77
2021/11/25 11:46:17;;;;;;;12.95;8.80;;;;;;;6.84;69.49;94628.55;812258;71;31867;-75
2021/11/25 12:01:20;;;;;;;15.63;9.50;;;;;;;7.04;69.03;94615.27;824963;71;32789;-76
2021/11/25 12:16:22;;;;;;;13.95;9.70;;;;;;;7.39;67.53;94591.71;830645;70;33022;-78
2021/11/25 12:46:12;;;;;;;11.73;9.48;;;;;;;7.59;67.22;94569.22;817470;71;30397;-77
2021/11/25 13:01:18;;;;;;;12.58;8.85;;;;;;;7.65;66.95;94559.02;824310;71;33490;-77
2021/11/25 13:16:13;;;;;;;13.45;9.50;;;;;;;7.76;67.05;94541.46;836861;70;30251;-77
2021/11/25 13:31:17;;;;;;;15.08;10.80;;;;;;;7.89;66.65;94535.67;840483;70;30392;-77
2021/11/25 13:46:09;;;;;;;11.83;9.75;;;;;;;7.36;67.85;94523.59;822174;70;30515;-77
2021/11/25 14:01:12;;;;;;;13.25;9.73;;;;;;;6.69;69.68;94491.66;823158;70;29808;-76
2021/11/25 14:16:16;;;;;;;24.30;14.70;;;;;;;6.74;70.46;94526.33;822394;71;30473;-77
2021/11/25 14:31:23;;;;;;;22.40;13.85;;;;;;;6.59;70.91;94530.27;825121;71;33231;-76
2021/11/25 15:16:08;;;;;;;27.55;17.92;;;;;;;6.19;72.55;94507.83;828885;70;29896;-75
2021/11/25 15:31:16;;;;;;;28.73;18.80;;;;;;;6.24;73.02;94497.92;827789;71;33077;-78
2021/11/25 15:46:10;;;;;;;27.75;17.80;;;;;;;6.16;73.24;94495.83;832970;70;29733;-77
2021/11/25 16:01:15;;;;;;;23.65;16.90;;;;;;;6.04;73.72;94481.75;833283;70;32757;-77
2021/11/25 16:16:14;;;;;;;28.42;17.57;;;;;;;5.85;74.17;94477.53;788322;73;29605;-79
2021/11/25 16:31:22;;;;;;;30.43;19.42;;;;;;;5.74;74.64;94477.27;828006;71;32654;-78
2021/11/25 16:46:20;;;;;;;27.52;17.70;;;;;;;5.53;75.50;94495.93;832692;71;30850;-79
2021/11/25 17:01:32;;;;;;;33.35;21.35;;;;;;;5.51;75.54;94496.17;819192;71;32880;-79
2021/11/25 17:16:33;;;;;;;;;;;;;;;;;;;;;
2021/11/25 17:31:21;;;;;;;36.95;23.05;;;;;;;5.30;76.43;94486.75;832667;71;32573;-78
2021/11/25 17:46:19;;;;;;;35.40;22.80;;;;;;;5.13;76.78;94494.72;822188;71;32887;-79
2021/11/25 18:01:14;;;;;;;37.23;23.30;;;;;;;5.02;77.17;94493.89;825026;71;30978;-78
2021/11/25 18:16:59;;;;;;;;;;;;;;;;;;;;;
2021/11/25 18:31:18;;;;;;;30.75;20.80;;;;;;;5.09;76.85;94468.46;820245;71;32905;-78
2021/11/25 18:46:41;;;;;;;33.55;21.55;;;;;;;5.13;76.52;94465.62;820288;71;32909;-78
2021/11/25 19:01:25;;;;;;;30.85;20.02;;;;;;;5.18;75.73;94465.63;808144;71;33201;-80
2021/11/25 19:16:46;;;;;;;28.27;19.62;;;;;;;4.95;75.90;94454.36;826351;71;32904;-79
2021/11/25 19:31:23;;;;;;;37.85;23.55;;;;;;;4.54;76.09;94400.84;823048;71;33337;-80
2021/11/25 20:31:38;;;;;;;36.08;24.60;;;;;;;4.85;74.57;94456.91;824591;71;32779;-81
2021/11/25 20:46:23;;;;;;;33.73;24.23;;;;;;;4.78;74.77;94440.22;827016;71;32818;-78
2021/11/25 21:16:22;;;;;;;25.55;18.62;;;;;;;4.57;75.05;94414.65;848488;70;32735;-78
2021/11/25 21:31:24;;;;;;;;;;;;;;;;;;;;;
2021/11/25 22:01:44;;;;;;;;;;;;;;;;;;;;;
2021/11/25 22:16:18;;;;;;;35.52;23.67;;;;;;;4.51;74.73;94372.78;833297;71;32737;-79
2021/11/25 22:31:57;;;;;;;24.67;15.98;;;;;;;4.37;75.21;94356.86;833502;71;30911;-77
2021/11/25 22:46:14;;;;;;;28.40;16.27;;;;;;;4.37;75.33;94346.47;833534;71;33206;-78
2021/11/25 23:01:15;;;;;;;21.60;15.25;;;;;;;4.35;75.53;94321.27;827296;71;30401;-78
2021/11/25 23:31:30;;;;;;;;;;;;;;;;;;;;;
2021/11/25 23:46:43;;;;;;;22.60;16.48;;;;;;;4.16;75.62;94248.22;822699;71;33087;-77
